Time;durP1;ratioP1;P1;durP2;ratioP2;P2;SDS_P1;SDS_P2;PMS_P1;PMS_P2;Temp;Humidity;BMP_temperature;BMP_pressure;BME280_temperature;BME280_humidity;BME280_pressure;Samples;Min_cycle;Max_cycle;Signal;HPM_P1;HPM_P2
2022/11/19 00:01:56;;;;;;;0.80;0.80;;;10.40;99.90;11.10;100467.00;;;;5031446;28;20199;-70
2022/11/19 00:04:25;;;;;;;0.83;0.83;;;10.30;99.90;11.40;100462.00;;;;5030311;28;20270;-70
2022/11/19 00:06:51;;;;;;;0.97;0.97;;;10.30;99.90;10.80;100465.00;;;;5018228;28;20200;-69
2022/11/19 00:09:26;;;;;;;0.80;0.80;;;10.20;99.90;11.00;100475.00;;;;5034243;28;20195;-69
2022/11/19 00:14:36;;;;;;;0.90;0.90;;;10.20;99.90;10.80;100472.00;;;;5034253;28;20197;-69
2022/11/19 00:17:02;;;;;;;1.03;1.03;;;10.10;99.90;10.90;100477.00;;;;5033627;28;20727;-69
2022/11/19 00:19:28;;;;;;;1.00;1.00;;;10.10;99.90;11.20;100463.00;;;;5035341;28;20646;-69
2022/11/19 00:21:54;;;;;;;1.70;1.60;;;10.30;99.90;10.80;100485.00;;;;5035269;28;20189;-69
2022/11/19 00:24:21;;;;;;;0.70;0.70;;;10.20;99.90;10.60;100475.00;;;;5034961;28;20224;-68
2022/11/19 00:26:49;;;;;;;0.70;0.70;;;10.10;99.90;10.60;100479.00;;;;5033791;28;20530;-68
2022/11/19 00:29:15;;;;;;;0.77;0.77;;;10.00;99.90;10.60;100471.00;;;;5034879;28;20196;-68
2022/11/19 00:31:43;;;;;;;2.50;2.40;;;9.90;99.90;11.10;100433.00;;;;5017116;28;20218;-68
2022/11/19 00:34:22;;;;;;;1.47;1.40;;;10.10;99.90;11.10;100429.00;;;;5034282;28;20195;-68
2022/11/19 00:36:47;;;;;;;0.87;0.87;;;10.10;99.90;11.40;100477.00;;;;5017974;28;20186;-68
2022/11/19 00:39:13;;;;;;;1.00;1.00;;;10.30;99.90;11.70;100482.00;;;;5034334;28;20684;-68
2022/11/19 00:41:39;;;;;;;0.80;0.80;;;10.50;99.90;11.00;100484.00;;;;5017361;28;20197;-68
2022/11/19 00:44:05;;;;;;;0.80;0.80;;;10.30;99.90;10.60;100489.00;;;;5034782;28;20186;-68
2022/11/19 00:46:31;;;;;;;0.90;0.90;;;10.10;99.90;10.30;100495.00;;;;5033154;28;20570;-68
2022/11/19 00:48:59;;;;;;;0.93;0.93;;;9.90;99.90;11.00;100507.00;;;;5033415;28;20692;-68
2022/11/19 00:51:28;;;;;;;0.80;0.80;;;10.10;99.90;11.30;100509.00;;;;5033300;28;20211;-68
2022/11/19 00:53:55;;;;;;;1.53;1.43;;;10.30;99.90;10.80;100504.00;;;;5033320;28;20179;-68
2022/11/19 00:56:25;;;;;;;0.70;0.70;;;10.10;99.90;11.40;100500.00;;;;5032433;28;20186;-68
2022/11/19 00:58:51;;;;;;;0.90;0.90;;;10.30;99.90;11.50;100502.00;;;;5043075;28;20550;-68
2022/11/19 01:01:20;;;;;;;0.80;0.80;;;10.40;99.90;11.70;100499.00;;;;5044976;28;20201;-68
2022/11/19 01:03:47;;;;;;;0.90;0.90;;;10.50;99.90;11.70;100486.00;;;;5023389;28;20187;-68
2022/11/19 01:06:18;;;;;;;0.80;0.80;;;10.60;99.90;11.60;100507.00;;;;5032031;28;20266;-68
2022/11/19 01:08:45;;;;;;;1.07;1.07;;;10.50;99.90;12.10;100505.00;;;;5017265;28;20267;-68
2022/11/19 01:11:14;;;;;;;1.10;1.10;;;10.80;99.90;12.20;100515.00;;;;5032561;28;20189;-68
2022/11/19 01:13:41;;;;;;;1.73;1.73;;;10.90;99.90;11.30;100515.00;;;;5032862;28;20186;-68
2022/11/19 01:16:11;;;;;;;0.90;0.90;;;10.70;99.90;12.10;100523.00;;;;5016094;28;20191;-68
2022/11/19 01:18:39;;;;;;;1.20;1.20;;;10.90;99.90;12.20;100530.00;;;;5032920;28;20182;-68
2022/11/19 01:21:07;;;;;;;1.20;1.20;;;11.00;99.90;11.80;100512.00;;;;5032762;28;20195;-71
2022/11/19 01:23:36;;;;;;;1.20;1.20;;;10.90;99.90;12.10;100525.00;;;;5023592;28;20183;-71
2022/11/19 01:26:03;;;;;;;1.77;1.70;;;11.00;99.90;12.20;100514.00;;;;5030346;28;20197;-72
2022/11/19 01:28:30;;;;;;;1.03;1.03;;;11.00;99.90;11.90;100523.00;;;;5033790;28;20185;-71
2022/11/19 01:30:56;;;;;;;1.10;1.10;;;11.00;99.90;11.50;100526.00;;;;5031960;28;20602;-71
2022/11/19 01:33:22;;;;;;;1.20;1.20;;;10.80;99.90;11.40;100523.00;;;;5032616;28;20196;-71
2022/11/19 01:36:01;;;;;;;1.00;1.00;;;10.70;99.90;11.40;100519.00;;;;5032668;28;20189;-71
2022/11/19 01:38:28;;;;;;;1.10;1.10;;;10.50;99.90;11.60;100515.00;;;;5032794;28;20637;-71
2022/11/19 01:40:56;;;;;;;1.00;1.00;;;10.50;99.90;11.70;100527.00;;;;5015859;28;20188;-72
2022/11/19 01:43:44;;;;;;;1.17;1.17;;;10.60;99.90;11.80;100529.00;;;;5032286;28;20187;-71
2022/11/19 01:46:13;;;;;;;1.00;1.00;;;10.70;99.90;11.70;100526.00;;;;5031921;28;20722;-72
2022/11/19 01:49:21;;;;;;;1.20;1.20;;;10.80;99.90;11.50;100533.00;;;;5003466;28;20612;-72
2022/11/19 01:52:00;;;;;;;1.73;1.63;;;10.60;99.90;11.80;100523.00;;;;5030934;28;20223;-72
2022/11/19 01:54:50;;;;;;;1.10;1.10;;;10.70;99.90;12.10;100512.00;;;;5032730;28;20708;-72
2022/11/19 01:57:17;;;;;;;1.10;1.10;;;10.90;99.90;12.10;100499.00;;;;5044172;28;20596;-72
2022/11/19 01:59:46;;;;;;;1.17;1.17;;;11.00;99.90;12.10;100512.00;;;;5031808;28;20194;-72
2022/11/19 02:02:12;;;;;;;1.50;1.50;;;11.00;99.90;12.60;100508.00;;;;5031945;28;20202;-72
2022/11/19 02:04:38;;;;;;;1.30;1.30;;;11.20;99.90;12.00;100503.00;;;;5032154;28;20191;-71
2022/11/19 02:07:06;;;;;;;1.20;1.20;;;11.10;99.90;11.90;100494.00;;;;5032100;28;20210;-72
2022/11/19 02:09:32;;;;;;;1.10;1.10;;;10.90;99.90;11.70;100516.00;;;;5014416;28;20183;-71
2022/11/19 02:12:41;;;;;;;1.20;1.20;;;10.70;99.90;10.80;100524.00;;;;5032849;28;20206;-71
2022/11/19 02:15:34;;;;;;;2.03;1.93;;;10.60;99.90;10.20;100492.00;;;;5058889;28;20208;-71
2022/11/19 02:18:16;;;;;;;0.77;0.77;;;10.10;99.90;10.90;100491.00;;;;5032000;28;20221;-71
2022/11/19 02:21:31;;;;;;;1.00;1.00;;;10.00;99.90;10.60;100529.00;;;;5029427;28;20636;-70
2022/11/19 02:24:29;;;;;;;0.90;0.90;;;10.10;99.90;10.60;100533.00;;;;5013458;28;20654;-71
2022/11/19 02:27:30;;;;;;;1.30;1.30;;;10.00;99.90;10.50;100540.00;;;;5031865;28;20193;-71
2022/11/19 02:30:07;;;;;;;0.80;0.80;;;10.00;99.90;10.90;100534.00;;;;5032425;28;20188;-71
2022/11/19 02:32:47;;;;;;;1.60;1.57;;;10.00;99.90;10.90;100539.00;;;;5056627;28;20602;-71
2022/11/19 02:35:19;;;;;;;1.77;1.67;;;10.10;99.90;10.30;100544.00;;;;5023519;28;20274;-71
2022/11/19 02:38:17;;;;;;;1.63;1.57;;;9.90;99.90;10.50;100505.00;;;;5031692;28;20188;-71
2022/11/19 02:41:34;;;;;;;0.60;0.60;;;10.00;99.90;10.80;100548.00;;;;5031321;28;20268;-72
2022/11/19 02:47:20;;;;;;;0.80;0.80;;;10.10;99.90;11.30;100533.00;;;;5032523;28;20555;-71
2022/11/19 02:49:56;;;;;;;0.83;0.83;;;10.30;99.90;10.80;100525.00;;;;5048306;28;20194;-70
2022/11/19 02:52:22;;;;;;;0.80;0.80;;;10.20;99.90;10.70;100527.00;;;;5031449;28;20217;-70
2022/11/19 02:54:48;;;;;;;1.63;1.53;;;10.00;99.90;11.20;100478.00;;;;5031427;28;20220;-70
2022/11/19 02:57:14;;;;;;;1.37;1.37;;;10.20;99.90;11.40;100482.00;;;;5011329;28;20245;-70
2022/11/19 03:05:34;;;;;;;1.80;1.80;;;9.90;99.90;10.70;100512.00;;;;5031823;28;20260;-69
2022/11/19 03:08:00;;;;;;;0.87;0.87;;;9.90;99.90;10.70;100521.00;;;;5031592;28;20646;-69
2022/11/19 03:10:59;;;;;;;0.80;0.80;;;9.90;99.90;11.10;100529.00;;;;5031035;28;20178;-69
2022/11/19 03:17:03;;;;;;;1.93;1.83;;;10.10;99.90;11.00;100543.00;;;;5016439;28;20205;-68
2022/11/19 03:19:44;;;;;;;0.70;0.70;;;10.10;99.90;10.60;100538.00;;;;5035092;28;20194;-69
2022/11/19 03:22:28;;;;;;;1.67;1.63;;;9.90;99.90;10.30;100537.00;;;;5035131;28;20186;-68
2022/11/19 03:25:11;;;;;;;8.50;7.60;;;9.90;99.90;9.90;100556.00;;;;5023376;28;20179;-68
2022/11/19 03:27:45;;;;;;;1.47;1.37;;;9.60;99.90;9.40;100555.00;;;;5029956;28;20190;-68
2022/11/19 03:30:14;;;;;;;5.67;2.83;;;9.50;99.90;9.60;100552.00;;;;5034975;28;20217;-68
2022/11/19 03:32:49;;;;;;;2.20;2.10;;;9.30;99.90;9.50;100489.00;;;;5034867;28;20221;-68
2022/11/19 03:35:24;;;;;;;0.47;0.47;;;9.30;99.90;9.80;100555.00;;;;5034837;28;20184;-68
2022/11/19 03:37:53;;;;;;;11.50;11.00;;;9.30;99.90;10.00;100545.00;;;;5035248;28;20192;-68
2022/11/19 03:40:21;;;;;;;1.33;0.90;;;9.40;99.90;10.80;100553.00;;;;5050779;28;20208;-68
2022/11/19 03:42:50;;;;;;;1.63;1.53;;;9.80;99.90;10.20;100516.00;;;;5034895;28;20187;-68
2022/11/19 03:45:23;;;;;;;0.50;0.50;;;9.80;99.90;10.80;100542.00;;;;5034494;28;20655;-68
2022/11/19 03:47:51;;;;;;;0.60;0.60;;;9.90;99.90;11.30;100550.00;;;;5027657;28;20190;-68
2022/11/19 03:50:42;;;;;;;1.00;1.00;;;10.20;99.90;11.00;100553.00;;;;5034397;28;20688;-67
2022/11/19 03:53:08;;;;;;;0.70;0.70;;;10.20;99.90;10.80;100554.00;;;;5035717;28;20229;-67
2022/11/19 03:55:51;;;;;;;1.73;1.63;;;10.00;99.90;10.00;100545.00;;;;5035308;28;20218;-67
2022/11/19 03:58:17;;;;;;;0.50;0.50;;;9.80;99.90;10.40;100562.00;;;;5034486;28;20186;-68
2022/11/19 04:00:43;;;;;;;1.13;1.13;;;9.70;99.90;10.50;100559.00;;;;5034284;28;20204;-68
2022/11/19 04:03:09;;;;;;;1.40;1.37;;;9.80;99.90;10.50;100503.00;;;;5035561;28;20183;-68
2022/11/19 04:05:35;;;;;;;1.93;1.83;;;9.70;99.90;10.60;100547.00;;;;5034103;28;20194;-68
2022/11/19 04:08:01;;;;;;;2.03;1.93;;;9.80;99.90;10.80;100554.00;;;;5035428;28;20538;-68
2022/11/19 04:10:26;;;;;;;0.60;0.60;;;9.90;99.90;10.60;100548.00;;;;5034688;28;20646;-68
2022/11/19 04:12:52;;;;;;;1.27;1.27;;;9.90;99.90;11.20;100553.00;;;;5033997;28;20301;-68
2022/11/19 04:15:18;;;;;;;0.70;0.70;;;10.20;99.90;11.30;100539.00;;;;5034117;28;20641;-68
2022/11/19 04:17:45;;;;;;;0.80;0.80;;;10.40;99.90;10.80;100549.00;;;;5034211;28;20618;-68
2022/11/19 04:20:11;;;;;;;1.27;1.27;;;10.10;99.90;10.20;100555.00;;;;5035380;28;20175;-68
2022/11/19 04:22:37;;;;;;;0.60;0.60;;;9.90;99.90;10.10;100555.00;;;;5017540;28;20662;-68
2022/11/19 04:25:03;;;;;;;0.70;0.70;;;9.80;99.90;10.90;100560.00;;;;5033607;28;20187;-68
2022/11/19 04:27:29;;;;;;;0.60;0.60;;;9.90;99.90;11.30;100519.00;;;;5033775;28;20685;-70
2022/11/19 04:29:55;;;;;;;0.60;0.60;;;10.10;99.90;11.40;100552.00;;;;5033870;28;20185;-69
2022/11/19 04:32:21;;;;;;;0.70;0.70;;;10.30;99.90;11.30;100559.00;;;;5017288;28;20221;-69
2022/11/19 04:34:46;;;;;;;7.73;7.43;;;10.20;99.90;11.50;100549.00;;;;5033655;28;20183;-68
2022/11/19 04:37:12;;;;;;;0.90;0.90;;;10.40;99.90;11.20;100509.00;;;;5017436;28;20190;-68
2022/11/19 04:39:38;;;;;;;0.80;0.80;;;10.30;99.90;11.20;100554.00;;;;5034630;28;20638;-68
2022/11/19 04:42:04;;;;;;;0.90;0.90;;;10.30;99.90;10.60;100562.00;;;;5017097;28;20183;-68
2022/11/19 04:44:31;;;;;;;0.80;0.80;;;10.10;99.90;11.00;100569.00;;;;5034509;28;20613;-68
2022/11/19 04:46:58;;;;;;;0.80;0.80;;;10.00;99.90;11.20;100555.00;;;;5035207;28;20302;-68
2022/11/19 04:49:24;;;;;;;1.00;1.00;;;10.10;99.90;11.10;100561.00;;;;5034991;28;20183;-68
2022/11/19 04:51:50;;;;;;;0.80;0.80;;;10.10;99.90;10.70;100562.00;;;;5033293;28;20198;-68
2022/11/19 04:54:19;;;;;;;0.70;0.70;;;10.10;99.90;10.80;100570.00;;;;5033465;28;20265;-68
2022/11/19 04:56:45;;;;;;;0.90;0.90;;;10.00;99.90;10.60;100577.00;;;;5016577;28;20538;-68
2022/11/19 04:59:11;;;;;;;0.70;0.70;;;10.10;99.90;10.10;100582.00;;;;5017071;28;20214;-68
2022/11/19 05:01:36;;;;;;;0.60;0.60;;;9.90;99.90;10.20;100589.00;;;;5034739;28;20613;-68
2022/11/19 05:04:02;;;;;;;0.60;0.60;;;9.80;99.90;10.50;100597.00;;;;5033072;28;20207;-68
2022/11/19 05:06:28;;;;;;;1.10;1.10;;;9.90;99.90;11.30;100600.00;;;;5031777;28;20694;-68
2022/11/19 05:08:54;;;;;;;1.53;1.53;;;10.30;99.90;11.60;100603.00;;;;5033926;28;20274;-68
2022/11/19 05:11:20;;;;;;;1.00;1.00;;;10.50;99.90;11.00;100583.00;;;;5032574;28;20650;-68
2022/11/19 05:13:46;;;;;;;0.70;0.70;;;10.50;99.90;10.90;100591.00;;;;5032870;28;20618;-68
2022/11/19 05:16:11;;;;;;;0.60;0.60;;;10.30;99.90;11.00;100596.00;;;;5033074;28;20195;-69
2022/11/19 05:18:37;;;;;;;0.70;0.70;;;10.30;99.90;11.00;100592.00;;;;5013231;28;20558;-69
2022/11/19 05:21:03;;;;;;;0.70;0.70;;;10.30;99.90;10.40;100545.00;;;;5058799;28;20195;-69
2022/11/19 05:23:29;;;;;;;0.60;0.60;;;10.10;99.90;10.30;100607.00;;;;5032356;28;20197;-68
2022/11/19 05:25:55;;;;;;;0.60;0.60;;;10.00;99.90;10.20;100596.00;;;;5032491;28;20210;-68
2022/11/19 05:28:21;;;;;;;1.47;1.37;;;9.90;99.90;10.40;100612.00;;;;5034175;28;20196;-68
2022/11/19 05:30:47;;;;;;;0.80;0.80;;;9.90;99.90;9.90;100607.00;;;;5016290;28;20179;-68
2022/11/19 05:33:16;;;;;;;0.50;0.50;;;9.80;99.90;9.90;100611.00;;;;5040159;28;20744;-68
2022/11/19 05:35:42;;;;;;;1.10;1.03;;;9.70;99.90;9.40;100597.00;;;;5063021;28;20194;-68
2022/11/19 05:38:07;;;;;;;3.37;2.93;;;9.50;99.90;9.00;100604.00;;;;5032838;28;20192;-68
2022/11/19 05:40:34;;;;;;;1.87;1.77;;;9.20;99.90;8.70;100630.00;;;;5028870;28;20259;-68
2022/11/19 05:43:06;;;;;;;1.43;1.33;;;9.00;99.90;9.20;100639.00;;;;5032176;28;20223;-68
2022/11/19 05:45:33;;;;;;;0.30;0.30;;;9.00;99.90;9.30;100640.00;;;;5034088;28;20570;-68
2022/11/19 05:47:59;;;;;;;2.30;1.50;;;9.10;99.90;8.80;100645.00;;;;5032828;28;20555;-68
2022/11/19 05:50:25;;;;;;;2.13;1.90;;;8.90;99.90;8.80;100595.00;;;;5029904;28;20193;-68
2022/11/19 05:52:50;;;;;;;3.70;3.07;;;8.80;99.90;8.70;100647.00;;;;5015481;28;20295;-68
2022/11/19 05:55:16;;;;;;;3.23;2.93;;;8.80;99.90;8.70;100659.00;;;;5025354;28;20194;-68
2022/11/19 05:57:43;;;;;;;1.37;1.27;;;8.70;99.90;9.00;100650.00;;;;5033244;28;20267;-68
2022/11/19 06:00:11;;;;;;;4.97;4.40;;;8.70;99.90;8.80;100642.00;;;;5033588;28;20184;-69
2022/11/19 06:02:36;;;;;;;0.60;0.60;;;8.70;99.90;9.10;100647.00;;;;5015645;28;20280;-69
2022/11/19 06:05:03;;;;;;;1.33;1.33;;;8.60;99.90;8.50;100636.00;;;;5031647;28;20700;-69
2022/11/19 06:07:29;;;;;;;4.97;3.40;;;8.40;99.90;8.60;100647.00;;;;5059655;28;20177;-71
2022/11/19 06:09:54;;;;;;;4.00;3.80;;;8.30;99.90;8.10;100660.00;;;;5032232;28;20181;-71
2022/11/19 06:12:20;;;;;;;2.20;2.10;;;8.20;99.90;8.10;100649.00;;;;5031963;28;20678;-70
2022/11/19 06:14:46;;;;;;;1.43;1.10;;;8.10;99.90;8.10;100614.00;;;;5033325;28;20651;-71
2022/11/19 06:17:12;;;;;;;2.70;2.50;;;8.00;99.90;8.10;100655.00;;;;5032115;28;20218;-71
2022/11/19 06:19:38;;;;;;;4.27;3.87;;;7.90;99.90;8.30;100570.00;;;;5030481;28;20230;-71
2022/11/19 06:22:04;;;;;;;2.30;2.10;;;8.00;99.90;8.20;100657.00;;;;5032806;28;20193;-71
2022/11/19 06:24:30;;;;;;;2.63;2.43;;;8.00;99.90;8.10;100651.00;;;;5031634;28;20195;-71
2022/11/19 06:26:56;;;;;;;0.60;0.60;;;8.00;99.90;8.00;100635.00;;;;5032801;28;20218;-71
2022/11/19 06:29:22;;;;;;;2.30;1.97;;;7.90;99.90;8.10;100683.00;;;;5033115;28;20219;-70
2022/11/19 06:31:48;;;;;;;1.13;1.13;;;7.90;99.90;7.40;100690.00;;;;5031654;28;20212;-73
2022/11/19 06:34:14;;;;;;;3.70;1.80;;;7.60;99.90;7.80;100680.00;;;;5031581;28;20186;-73
2022/11/19 06:36:43;;;;;;;1.80;0.80;;;7.60;99.90;7.80;100665.00;;;;5015117;28;20388;-73
2022/11/19 06:39:09;;;;;;;2.03;1.93;;;7.60;99.90;7.70;100697.00;;;;5031773;28;20207;-73
2022/11/19 06:41:35;;;;;;;3.37;2.73;;;7.60;99.90;7.30;100653.00;;;;5032588;28;20650;-72
2022/11/19 06:44:02;;;;;;;1.27;1.17;;;7.50;99.90;7.40;100712.00;;;;5017715;28;20678;-71
2022/11/19 06:46:32;;;;;;;2.67;1.43;;;7.40;99.90;7.50;100709.00;;;;5032118;28;20194;-71
2022/11/19 06:48:58;;;;;;;6.77;4.60;;;7.40;99.90;7.00;100704.00;;;;5040271;28;20270;-71
2022/11/19 06:51:24;;;;;;;1.70;1.60;;;7.30;99.90;7.00;100669.00;;;;5031844;28;20276;-71
2022/11/19 06:53:53;;;;;;;0.67;0.67;;;7.10;99.90;7.80;100727.00;;;;5033172;28;20187;-71
2022/11/19 06:56:19;;;;;;;0.73;0.73;;;7.40;99.90;8.00;100745.00;;;;5036640;28;20183;-69
2022/11/19 06:59:00;;;;;;;0.70;0.70;;;7.50;99.90;7.80;100738.00;;;;5018909;28;20197;-70
2022/11/19 07:01:26;;;;;;;1.63;1.53;;;7.50;99.90;8.10;100739.00;;;;5050197;28;20582;-71
2022/11/19 07:03:52;;;;;;;1.83;1.73;;;7.60;99.90;7.40;100740.00;;;;5036363;28;20187;-71
2022/11/19 07:06:18;;;;;;;1.50;1.47;;;7.40;99.90;6.90;100744.00;;;;5035609;28;20189;-74
2022/11/19 07:08:46;;;;;;;1.07;1.00;;;7.10;99.90;6.80;100732.00;;;;5035453;28;20539;-74
2022/11/19 07:11:25;;;;;;;2.60;2.40;;;7.00;99.90;6.80;100665.00;;;;5036332;28;20658;-74
2022/11/19 07:13:58;;;;;;;1.30;1.27;;;7.00;99.90;7.00;100733.00;;;;5032344;28;20183;-73
2022/11/19 07:16:33;;;;;;;2.40;0.97;;;6.90;99.90;6.60;100736.00;;;;5065187;28;20189;-74
2022/11/19 07:19:02;;;;;;;6.07;3.83;;;6.80;99.90;6.90;100741.00;;;;5034886;28;20681;-73
2022/11/19 07:21:29;;;;;;;0.60;0.60;;;6.80;99.90;6.90;100746.00;;;;5035324;28;20187;-73
2022/11/19 07:23:57;;;;;;;2.03;1.90;;;6.80;99.90;7.30;100731.00;;;;5018852;28;20203;-73
2022/11/19 07:26:24;;;;;;;0.97;0.97;;;6.90;99.90;7.20;100740.00;;;;5035973;28;20258;-73
2022/11/19 07:28:51;;;;;;;0.87;0.87;;;7.00;99.90;7.00;100673.00;;;;5024308;28;20190;-73
2022/11/19 07:31:16;;;;;;;0.60;0.60;;;6.80;99.90;6.90;100734.00;;;;5034916;28;20227;-73
2022/11/19 07:33:42;;;;;;;0.67;0.67;;;6.70;99.90;6.90;100703.00;;;;5035032;28;20198;-73
2022/11/19 07:36:10;;;;;;;1.37;1.27;;;6.80;99.90;6.50;100747.00;;;;5034907;28;20186;-73
2022/11/19 07:38:37;;;;;;;1.47;1.37;;;6.60;99.90;6.30;100746.00;;;;5034809;28;20217;-74
2022/11/19 07:43:49;;;;;;;0.77;0.70;;;6.40;99.90;6.40;100768.00;;;;5029851;28;20244;-73
2022/11/19 07:46:15;;;;;;;0.80;0.80;;;6.40;99.90;6.10;100761.00;;;;5034668;28;20597;-73
2022/11/19 07:48:41;;;;;;;1.07;0.80;;;6.30;99.90;6.20;100760.00;;;;5034816;28;20234;-73
2022/11/19 07:51:07;;;;;;;1.17;1.03;;;6.20;99.90;6.50;100723.00;;;;5034690;28;20185;-72
2022/11/19 07:53:36;;;;;;;1.10;1.10;;;6.30;99.90;6.40;100760.00;;;;5033926;28;20244;-71
2022/11/19 07:56:03;;;;;;;1.53;1.20;;;6.30;99.90;6.30;100762.00;;;;5018101;28;20522;-72
2022/11/19 07:58:28;;;;;;;1.97;1.87;;;6.20;99.90;5.90;100760.00;;;;5034408;28;21446;-73
2022/11/19 08:00:54;;;;;;;0.87;0.87;;;6.00;99.90;6.10;100777.00;;;;5034334;28;20263;-73
2022/11/19 08:03:20;;;;;;;1.43;1.33;;;6.10;99.90;6.30;100769.00;;;;5039210;28;20193;-73
2022/11/19 08:05:53;;;;;;;2.20;2.10;;;6.10;99.90;6.10;100771.00;;;;5030374;28;20219;-73
2022/11/19 08:08:19;;;;;;;2.90;2.63;;;6.10;99.90;5.80;100776.00;;;;5018940;28;20201;-73
2022/11/19 08:10:44;;;;;;;1.10;1.10;;;6.00;99.90;6.10;100728.00;;;;5034026;28;20192;-73
2022/11/19 08:13:10;;;;;;;0.60;0.60;;;6.10;99.90;5.80;100724.00;;;;5034138;28;20213;-72
2022/11/19 08:15:36;;;;;;;1.53;1.47;;;5.90;99.90;5.90;100745.00;;;;5027432;28;20198;-71
2022/11/19 08:18:11;;;;;;;1.87;1.77;;;6.00;99.90;6.30;100795.00;;;;5033902;28;20185;-71
2022/11/19 08:20:44;;;;;;;0.87;0.87;;;6.10;99.90;5.90;100810.00;;;;5023180;28;20234;-70
2022/11/19 08:23:16;;;;;;;1.50;1.40;;;6.00;99.90;6.00;100812.00;;;;5016341;28;20217;-70
2022/11/19 08:25:52;;;;;;;1.93;1.73;;;6.00;99.90;5.60;100812.00;;;;5020465;28;20211;-70
2022/11/19 08:28:18;;;;;;;0.70;0.70;;;5.90;99.90;5.90;100816.00;;;;5019306;28;20180;-70
2022/11/19 08:30:51;;;;;;;1.23;1.23;;;6.00;99.90;6.00;100818.00;;;;5033715;28;20189;-70
2022/11/19 08:33:20;;;;;;;2.30;2.10;;;5.90;99.90;5.90;100823.00;;;;5033649;28;20614;-70
2022/11/19 08:35:48;;;;;;;0.60;0.60;;;5.90;99.90;6.00;100808.00;;;;5033695;28;20231;-70
2022/11/19 08:38:20;;;;;;;0.80;0.80;;;6.00;99.90;6.20;100824.00;;;;5023636;28;20188;-70
2022/11/19 08:43:41;;;;;;;1.13;0.90;;;6.00;99.90;6.50;100794.00;;;;5033569;28;20193;-70
2022/11/19 08:46:08;;;;;;;1.93;1.83;;;6.10;99.90;6.30;100779.00;;;;5033433;28;20188;-70
2022/11/19 08:48:35;;;;;;;2.73;2.53;;;6.10;99.90;6.00;100760.00;;;;5033432;28;20535;-70
2022/11/19 08:51:06;;;;;;;2.03;1.80;;;6.00;99.90;5.30;100832.00;;;;5033772;28;20179;-70
2022/11/19 08:53:40;;;;;;;2.43;2.23;;;5.70;99.90;5.80;100823.00;;;;5033248;28;20682;-70
2022/11/19 08:56:06;;;;;;;1.57;1.47;;;5.70;99.90;6.00;100834.00;;;;5034304;28;20667;-70
2022/11/19 08:58:35;;;;;;;0.80;0.80;;;5.80;99.90;6.00;100798.00;;;;5033483;28;20215;-70
2022/11/19 09:01:31;;;;;;;2.70;2.50;;;5.80;99.90;6.30;100823.00;;;;5033311;28;20200;-70
2022/11/19 09:03:57;;;;;;;4.30;4.00;;;6.00;99.90;5.70;100829.00;;;;5031404;28;20221;-70
2022/11/19 09:06:25;;;;;;;4.80;3.83;;;5.70;99.90;5.50;100790.00;;;;5032992;28;20227;-69
2022/11/19 09:08:51;;;;;;;0.70;0.70;;;5.60;99.90;6.10;100823.00;;;;5032564;28;20648;-70
2022/11/19 09:11:20;;;;;;;3.40;3.17;;;5.80;99.90;5.90;100846.00;;;;5032915;28;20572;-70
2022/11/19 09:13:55;;;;;;;3.30;3.03;;;5.80;99.90;5.80;100843.00;;;;5032585;28;20191;-70
2022/11/19 09:16:23;;;;;;;3.03;2.73;;;5.70;99.90;5.80;100846.00;;;;5032251;28;20187;-70
2022/11/19 09:18:49;;;;;;;4.43;3.37;;;5.70;99.90;5.40;100857.00;;;;5034035;28;20525;-68
2022/11/19 09:21:22;;;;;;;5.10;4.70;;;5.60;99.90;5.40;100809.00;;;;5032705;28;20189;-68
2022/11/19 09:23:48;;;;;;;1.10;1.10;;;5.50;99.90;5.20;100869.00;;;;5029691;28;20232;-66
2022/11/19 09:26:18;;;;;;;2.50;2.40;;;5.40;99.90;5.00;100872.00;;;;5058624;28;20189;-68
2022/11/19 09:28:50;;;;;;;13.20;8.03;;;5.40;99.90;4.50;100872.00;;;;5032322;28;20662;-68
2022/11/19 09:31:18;;;;;;;7.60;4.73;;;5.10;99.90;4.80;100878.00;;;;5014151;28;20190;-67
2022/11/19 09:33:48;;;;;;;4.10;3.73;;;5.10;99.90;5.70;100871.00;;;;5033888;28;20179;-68
2022/11/19 09:36:15;;;;;;;6.07;5.47;;;5.40;99.90;5.20;100872.00;;;;5033394;28;20222;-66
2022/11/19 09:38:41;;;;;;;2.87;2.50;;;5.40;99.90;5.00;100864.00;;;;5032766;28;20241;-65
2022/11/19 09:41:16;;;;;;;2.80;2.70;;;5.10;99.90;5.70;100885.00;;;;5032275;28;20204;-68
2022/11/19 09:43:57;;;;;;;8.03;5.47;;;5.50;99.90;5.10;100881.00;;;;5033161;28;20659;-67
2022/11/19 09:46:57;;;;;;;1.77;1.67;;;5.50;99.90;4.90;100884.00;;;;5033667;28;20652;-68
2022/11/19 09:49:46;;;;;;;6.87;5.53;;;5.20;99.90;5.00;100900.00;;;;5007127;28;20200;-66
2022/11/19 09:52:22;;;;;;;3.20;2.93;;;5.10;99.90;5.10;100904.00;;;;5031475;28;20229;-67
2022/11/19 09:54:51;;;;;;;8.77;6.20;;;5.20;99.90;4.80;100905.00;;;;5031794;28;20179;-68
2022/11/19 09:57:47;;;;;;;3.77;3.63;;;5.10;99.90;5.00;100909.00;;;;5031721;28;20184;-65
2022/11/19 10:00:20;;;;;;;2.20;2.03;;;5.10;99.90;4.60;100915.00;;;;5041799;28;20191;-65
2022/11/19 10:02:47;;;;;;;8.07;6.77;;;4.90;99.90;4.90;100895.00;;;;5039399;28;20221;-65
2022/11/19 10:05:47;;;;;;;2.87;2.67;;;5.00;99.90;5.00;100915.00;;;;5033682;28;20204;-65
2022/11/19 10:08:43;;;;;;;5.87;4.67;;;5.00;99.90;5.00;100910.00;;;;5027014;28;20202;-65
2022/11/19 10:11:37;;;;;;;1.20;1.20;;;5.00;99.90;5.30;100893.00;;;;5033144;28;20255;-67
2022/11/19 10:14:32;;;;;;;5.57;5.17;;;5.20;99.90;5.50;100907.00;;;;5030488;28;20182;-67
2022/11/19 10:17:19;;;;;;;2.93;2.50;;;5.20;99.90;5.80;100902.00;;;;5026670;28;20184;-67
2022/11/19 10:20:09;;;;;;;10.37;7.40;;;5.40;99.90;5.10;100856.00;;;;5030865;28;20295;-68
2022/11/19 10:33:39;;;;;;;11.10;5.87;;;4.70;99.90;4.50;100906.00;;;;5096321;27;20738;-66
2022/11/19 10:36:40;;;;;;;1.17;1.17;;;4.80;99.90;5.10;100908.00;;;;5064709;28;20192;-67
2022/11/19 10:39:26;;;;;;;4.40;3.97;;;4.90;99.90;4.80;100900.00;;;;5068771;28;20190;-67
2022/11/19 10:42:32;;;;;;;4.13;2.90;;;4.90;99.90;4.80;100902.00;;;;5062057;28;20190;-67
2022/11/19 10:45:25;;;;;;;8.40;5.53;;;4.90;99.90;4.90;100891.00;;;;5069107;28;20196;-66
2022/11/19 10:47:58;;;;;;;1.30;1.30;;;4.90;99.90;5.60;100897.00;;;;5064549;28;20182;-66
2022/11/19 10:50:25;;;;;;;4.17;2.47;;;5.10;99.90;5.20;100880.00;;;;5068762;28;20637;-66
2022/11/19 10:53:15;;;;;;;8.90;8.10;;;5.20;99.90;4.70;100888.00;;;;5061831;28;20204;-66
2022/11/19 10:55:48;;;;;;;10.97;7.80;;;5.00;99.90;5.10;100899.00;;;;5064183;28;20615;-66
2022/11/19 10:59:31;;;;;;;11.90;7.33;;;5.00;99.90;5.20;100899.00;;;;5069774;28;20320;-66
2022/11/19 11:02:18;;;;;;;16.53;11.43;;;5.00;99.90;4.50;100886.00;;;;4972158;28;20522;-66
2022/11/19 11:05:13;;;;;;;13.53;7.30;;;4.90;99.90;4.80;100904.00;;;;5068339;28;20242;-66
2022/11/19 11:07:51;;;;;;;6.47;3.20;;;4.80;99.90;4.90;100902.00;;;;5065376;28;20191;-66
2022/11/19 11:10:55;;;;;;;0.60;0.60;;;4.90;99.90;5.20;100899.00;;;;5059561;28;20277;-66
2022/11/19 11:16:45;;;;;;;6.87;6.33;;;4.90;99.90;5.30;100900.00;;;;5049578;28;20193;-66
2022/11/19 11:19:34;;;;;;;2.87;2.03;;;5.00;99.90;5.30;100839.00;;;;5040716;28;20181;-66
2022/11/19 11:22:15;;;;;;;6.40;5.23;;;5.10;99.90;4.70;100902.00;;;;5051614;28;20180;-67
2022/11/19 11:24:41;;;;;;;0.73;0.73;;;5.00;99.90;5.30;100899.00;;;;5052188;28;20186;-67
2022/11/19 11:27:34;;;;;;;1.63;1.53;;;5.10;99.90;5.70;100902.00;;;;5069052;28;20194;-67
2022/11/19 11:30:25;;;;;;;3.30;3.03;;;5.30;99.90;5.60;100899.00;;;;5057037;28;20195;-67
2022/11/19 11:33:02;;;;;;;6.70;5.37;;;5.30;99.90;5.40;100911.00;;;;5060090;28;20727;-67
2022/11/19 11:35:36;;;;;;;2.73;2.13;;;5.40;99.90;5.40;100911.00;;;;5067046;28;20188;-67
2022/11/19 11:38:04;;;;;;;6.27;5.63;;;5.30;99.90;5.40;100910.00;;;;5038309;28;20218;-66
2022/11/19 11:40:30;;;;;;;9.00;5.03;;;5.30;99.90;5.00;100907.00;;;;5067524;28;20221;-66
2022/11/19 11:43:06;;;;;;;8.23;5.30;;;5.20;99.90;5.00;100895.00;;;;5064191;28;20200;-66
2022/11/19 11:45:34;;;;;;;6.53;5.93;;;5.10;99.90;5.60;100913.00;;;;5054479;28;20236;-66
2022/11/19 11:48:07;;;;;;;2.43;2.33;;;5.20;99.90;5.90;100907.00;;;;5053106;28;20241;-66
2022/11/19 11:50:36;;;;;;;3.67;3.17;;;5.40;99.90;5.00;100904.00;;;;5049947;28;20242;-66
2022/11/19 11:53:08;;;;;;;6.07;5.47;;;5.30;99.90;5.20;100900.00;;;;5038823;28;20281;-66